sensor_id;sensor_type;location;lat;lon;timestamp;temperature;humidity
32536;DHT22;18974;50.838;4.636;2022-12-07T00:00:02;6.70;99.90
32536;DHT22;18974;50.838;4.636;2022-12-07T00:02:28;6.70;99.90
32536;DHT22;18974;50.838;4.636;2022-12-07T00:04:54;6.70;99.90
32536;DHT22;18974;50.838;4.636;2022-12-07T00:07:19;6.70;99.90
32536;DHT22;18974;50.838;4.636;2022-12-07T00:09:45;6.80;99.90
32536;DHT22;18974;50.838;4.636;2022-12-07T00:12:10;6.70;99.90
32536;DHT22;18974;50.838;4.636;2022-12-07T00:14:36;6.70;99.90
32536;DHT22;18974;50.838;4.636;2022-12-07T00:17:02;6.60;99.90
32536;DHT22;18974;50.838;4.636;2022-12-07T00:19:27;6.60;99.90
32536;DHT22;18974;50.838;4.636;2022-12-07T00:21:53;6.40;99.90
32536;DHT22;18974;50.838;4.636;2022-12-07T00:24:19;6.60;99.90
32536;DHT22;18974;50.838;4.636;2022-12-07T00:26:44;6.60;99.90
32536;DHT22;18974;50.838;4.636;2022-12-07T00:29:20;6.50;99.90
32536;DHT22;18974;50.838;4.636;2022-12-07T00:31:49;6.50;99.90
32536;DHT22;18974;50.838;4.636;2022-12-07T00:34:18;6.40;99.90
32536;DHT22;18974;50.838;4.636;2022-12-07T00:36:44;6.40;99.90
32536;DHT22;18974;50.838;4.636;2022-12-07T00:39:09;6.40;99.90
32536;DHT22;18974;50.838;4.636;2022-12-07T00:41:35;6.30;99.90
32536;DHT22;18974;50.838;4.636;2022-12-07T00:44:01;6.20;99.90
32536;DHT22;18974;50.838;4.636;2022-12-07T00:46:26;6.20;99.90
32536;DHT22;18974;50.838;4.636;2022-12-07T00:48:53;6.20;99.90
32536;DHT22;18974;50.838;4.636;2022-12-07T00:51:21;6.10;99.90
32536;DHT22;18974;50.838;4.636;2022-12-07T00:53:47;6.10;99.90
32536;DHT22;18974;50.838;4.636;2022-12-07T00:56:21;6.00;99.90
32536;DHT22;18974;50.838;4.636;2022-12-07T00:59:01;5.90;99.90
32536;DHT22;18974;50.838;4.636;2022-12-07T01:01:29;5.80;99.90
32536;DHT22;18974;50.838;4.636;2022-12-07T01:03:55;5.80;99.90
32536;DHT22;18974;50.838;4.636;2022-12-07T01:06:22;5.70;99.90
32536;DHT22;18974;50.838;4.636;2022-12-07T01:08:48;5.50;99.90
32536;DHT22;18974;50.838;4.636;2022-12-07T01:11:16;5.60;99.90
32536;DHT22;18974;50.838;4.636;2022-12-07T01:13:43;5.60;99.90
32536;DHT22;18974;50.838;4.636;2022-12-07T01:16:11;5.60;99.90
32536;DHT22;18974;50.838;4.636;2022-12-07T01:18:38;5.60;99.90
32536;DHT22;18974;50.838;4.636;2022-12-07T01:21:16;5.60;99.90
32536;DHT22;18974;50.838;4.636;2022-12-07T01:23:42;5.50;99.90
32536;DHT22;18974;50.838;4.636;2022-12-07T01:26:13;5.50;99.90
32536;DHT22;18974;50.838;4.636;2022-12-07T01:28:39;5.40;99.90
32536;DHT22;18974;50.838;4.636;2022-12-07T01:31:10;5.40;99.90
32536;DHT22;18974;50.838;4.636;2022-12-07T01:33:48;5.40;99.90
32536;DHT22;18974;50.838;4.636;2022-12-07T01:36:15;5.30;99.90
32536;DHT22;18974;50.838;4.636;2022-12-07T01:38:41;5.30;99.90
32536;DHT22;18974;50.838;4.636;2022-12-07T01:41:08;5.20;99.90
32536;DHT22;18974;50.838;4.636;2022-12-07T01:43:34;5.10;99.90
32536;DHT22;18974;50.838;4.636;2022-12-07T01:46:01;5.00;99.90
32536;DHT22;18974;50.838;4.636;2022-12-07T01:48:38;5.00;99.90
32536;DHT22;18974;50.838;4.636;2022-12-07T01:51:09;5.10;99.90
32536;DHT22;18974;50.838;4.636;2022-12-07T01:53:39;5.10;99.90
32536;DHT22;18974;50.838;4.636;2022-12-07T01:56:08;5.00;99.90
32536;DHT22;18974;50.838;4.636;2022-12-07T01:58:35;5.00;99.90
32536;DHT22;18974;50.838;4.636;2022-12-07T02:01:01;5.00;99.90
32536;DHT22;18974;50.838;4.636;2022-12-07T02:03:40;5.10;99.90
32536;DHT22;18974;50.838;4.636;2022-12-07T02:06:07;5.20;99.90
32536;DHT22;18974;50.838;4.636;2022-12-07T02:08:33;5.20;99.90
32536;DHT22;18974;50.838;4.636;2022-12-07T02:11:02;5.40;99.90
32536;DHT22;18974;50.838;4.636;2022-12-07T02:13:31;5.50;99.90
32536;DHT22;18974;50.838;4.636;2022-12-07T02:18:42;5.50;99.90
32536;DHT22;18974;50.838;4.636;2022-12-07T02:21:38;5.50;99.90
32536;DHT22;18974;50.838;4.636;2022-12-07T02:24:19;5.60;99.90
32536;DHT22;18974;50.838;4.636;2022-12-07T02:29:58;5.70;99.90
32536;DHT22;18974;50.838;4.636;2022-12-07T02:38:16;5.60;99.90
32536;DHT22;18974;50.838;4.636;2022-12-07T02:40:52;5.30;99.90
32536;DHT22;18974;50.838;4.636;2022-12-07T02:43:37;5.30;99.90
32536;DHT22;18974;50.838;4.636;2022-12-07T02:46:07;5.30;99.90
32536;DHT22;18974;50.838;4.636;2022-12-07T02:48:34;5.30;99.90
32536;DHT22;18974;50.838;4.636;2022-12-07T02:51:01;5.20;99.90
32536;DHT22;18974;50.838;4.636;2022-12-07T03:04:45;5.30;99.90
32536;DHT22;18974;50.838;4.636;2022-12-07T03:07:33;5.40;99.90
32536;DHT22;18974;50.838;4.636;2022-12-07T03:15:53;5.20;99.90
32536;DHT22;18974;50.838;4.636;2022-12-07T03:18:22;5.20;99.90
32536;DHT22;18974;50.838;4.636;2022-12-07T03:20:52;5.30;99.90
32536;DHT22;18974;50.838;4.636;2022-12-07T03:23:19;5.20;99.90
32536;DHT22;18974;50.838;4.636;2022-12-07T03:25:49;5.20;99.90
32536;DHT22;18974;50.838;4.636;2022-12-07T03:28:19;5.00;99.90
32536;DHT22;18974;50.838;4.636;2022-12-07T03:30:53;5.00;99.90
32536;DHT22;18974;50.838;4.636;2022-12-07T03:33:32;5.00;99.90
32536;DHT22;18974;50.838;4.636;2022-12-07T03:36:12;4.90;99.90
32536;DHT22;18974;50.838;4.636;2022-12-07T03:38:45;4.90;99.90
32536;DHT22;18974;50.838;4.636;2022-12-07T03:41:24;4.90;99.90
32536;DHT22;18974;50.838;4.636;2022-12-07T03:43:51;5.10;99.90
32536;DHT22;18974;50.838;4.636;2022-12-07T03:54:36;5.30;99.90
32536;DHT22;18974;50.838;4.636;2022-12-07T03:57:05;5.30;99.90
32536;DHT22;18974;50.838;4.636;2022-12-07T03:59:32;5.30;99.90
32536;DHT22;18974;50.838;4.636;2022-12-07T04:02:03;5.30;99.90
32536;DHT22;18974;50.838;4.636;2022-12-07T04:04:29;5.30;99.90
32536;DHT22;18974;50.838;4.636;2022-12-07T04:06:55;5.30;99.90
32536;DHT22;18974;50.838;4.636;2022-12-07T04:09:22;5.20;99.90
32536;DHT22;18974;50.838;4.636;2022-12-07T04:11:48;5.20;99.90
32536;DHT22;18974;50.838;4.636;2022-12-07T04:14:14;5.20;99.90
32536;DHT22;18974;50.838;4.636;2022-12-07T04:16:52;5.10;99.90
32536;DHT22;18974;50.838;4.636;2022-12-07T04:19:25;5.20;99.90
32536;DHT22;18974;50.838;4.636;2022-12-07T04:21:51;5.20;99.90
32536;DHT22;18974;50.838;4.636;2022-12-07T04:24:17;5.20;99.90
32536;DHT22;18974;50.838;4.636;2022-12-07T04:26:44;5.10;99.90
32536;DHT22;18974;50.838;4.636;2022-12-07T04:29:11;5.30;99.90
32536;DHT22;18974;50.838;4.636;2022-12-07T04:31:37;5.10;99.90
32536;DHT22;18974;50.838;4.636;2022-12-07T04:34:04;5.00;99.90
32536;DHT22;18974;50.838;4.636;2022-12-07T04:36:30;4.90;99.90
32536;DHT22;18974;50.838;4.636;2022-12-07T04:38:56;4.80;99.90
32536;DHT22;18974;50.838;4.636;2022-12-07T04:41:22;4.70;99.90
32536;DHT22;18974;50.838;4.636;2022-12-07T04:43:56;4.70;99.90
32536;DHT22;18974;50.838;4.636;2022-12-07T04:46:23;4.70;99.90
32536;DHT22;18974;50.838;4.636;2022-12-07T04:48:49;4.60;99.90
32536;DHT22;18974;50.838;4.636;2022-12-07T04:51:21;4.50;99.90
32536;DHT22;18974;50.838;4.636;2022-12-07T04:53:47;4.60;99.90
32536;DHT22;18974;50.838;4.636;2022-12-07T04:56:14;4.60;99.90
32536;DHT22;18974;50.838;4.636;2022-12-07T04:58:40;4.60;99.90
32536;DHT22;18974;50.838;4.636;2022-12-07T05:01:06;4.50;99.90
32536;DHT22;18974;50.838;4.636;2022-12-07T05:03:32;4.60;99.90
32536;DHT22;18974;50.838;4.636;2022-12-07T05:05:58;4.50;99.90
32536;DHT22;18974;50.838;4.636;2022-12-07T05:08:23;4.50;99.90
32536;DHT22;18974;50.838;4.636;2022-12-07T05:10:49;4.50;99.90
32536;DHT22;18974;50.838;4.636;2022-12-07T05:13:15;4.50;99.90
32536;DHT22;18974;50.838;4.636;2022-12-07T05:15:41;4.50;99.90
32536;DHT22;18974;50.838;4.636;2022-12-07T05:18:09;4.50;99.90
32536;DHT22;18974;50.838;4.636;2022-12-07T05:20:37;4.50;99.90
32536;DHT22;18974;50.838;4.636;2022-12-07T05:23:03;4.50;99.90
32536;DHT22;18974;50.838;4.636;2022-12-07T05:25:28;4.30;99.90
32536;DHT22;18974;50.838;4.636;2022-12-07T05:27:55;4.30;99.90
32536;DHT22;18974;50.838;4.636;2022-12-07T05:30:21;4.30;99.90
32536;DHT22;18974;50.838;4.636;2022-12-07T05:32:46;4.30;99.90
32536;DHT22;18974;50.838;4.636;2022-12-07T05:35:12;4.40;99.90
32536;DHT22;18974;50.838;4.636;2022-12-07T05:37:38;4.50;99.90
32536;DHT22;18974;50.838;4.636;2022-12-07T05:40:04;4.60;99.90
32536;DHT22;18974;50.838;4.636;2022-12-07T05:42:32;4.70;99.90
32536;DHT22;18974;50.838;4.636;2022-12-07T05:44:58;4.80;99.90
32536;DHT22;18974;50.838;4.636;2022-12-07T05:47:23;4.90;99.90
32536;DHT22;18974;50.838;4.636;2022-12-07T05:49:49;4.90;99.90
32536;DHT22;18974;50.838;4.636;2022-12-07T05:52:15;4.90;99.90
32536;DHT22;18974;50.838;4.636;2022-12-07T05:54:41;4.90;99.90
32536;DHT22;18974;50.838;4.636;2022-12-07T05:57:06;5.00;99.90
32536;DHT22;18974;50.838;4.636;2022-12-07T05:59:32;5.00;99.90
32536;DHT22;18974;50.838;4.636;2022-12-07T06:02:00;5.10;99.90
32536;DHT22;18974;50.838;4.636;2022-12-07T06:04:30;5.10;99.90
32536;DHT22;18974;50.838;4.636;2022-12-07T06:06:56;5.20;99.90
32536;DHT22;18974;50.838;4.636;2022-12-07T06:09:23;5.10;99.90
32536;DHT22;18974;50.838;4.636;2022-12-07T06:11:49;5.10;99.90
32536;DHT22;18974;50.838;4.636;2022-12-07T06:14:33;5.00;99.90
32536;DHT22;18974;50.838;4.636;2022-12-07T06:16:59;5.00;99.90
32536;DHT22;18974;50.838;4.636;2022-12-07T06:19:25;5.00;99.90
32536;DHT22;18974;50.838;4.636;2022-12-07T06:21:51;5.00;99.90
32536;DHT22;18974;50.838;4.636;2022-12-07T06:24:17;4.90;99.90
32536;DHT22;18974;50.838;4.636;2022-12-07T06:26:43;4.80;99.90
32536;DHT22;18974;50.838;4.636;2022-12-07T06:29:09;4.90;99.90
32536;DHT22;18974;50.838;4.636;2022-12-07T06:31:36;4.90;99.90
32536;DHT22;18974;50.838;4.636;2022-12-07T06:34:08;4.90;99.90
32536;DHT22;18974;50.838;4.636;2022-12-07T06:36:34;4.80;99.90
32536;DHT22;18974;50.838;4.636;2022-12-07T06:38:59;4.90;99.90
32536;DHT22;18974;50.838;4.636;2022-12-07T06:41:25;4.90;99.90
32536;DHT22;18974;50.838;4.636;2022-12-07T06:43:51;5.00;99.90
32536;DHT22;18974;50.838;4.636;2022-12-07T06:46:16;4.90;99.90
32536;DHT22;18974;50.838;4.636;2022-12-07T06:48:42;5.00;99.90
32536;DHT22;18974;50.838;4.636;2022-12-07T06:51:09;4.90;99.90
32536;DHT22;18974;50.838;4.636;2022-12-07T06:53:35;4.90;99.90
32536;DHT22;18974;50.838;4.636;2022-12-07T06:56:01;4.90;99.90
32536;DHT22;18974;50.838;4.636;2022-12-07T06:58:27;4.80;99.90
32536;DHT22;18974;50.838;4.636;2022-12-07T07:00:53;4.80;99.90
32536;DHT22;18974;50.838;4.636;2022-12-07T07:03:19;4.80;99.90
32536;DHT22;18974;50.838;4.636;2022-12-07T07:05:44;4.80;99.90
32536;DHT22;18974;50.838;4.636;2022-12-07T07:08:11;4.80;99.90
32536;DHT22;18974;50.838;4.636;2022-12-07T07:10:37;4.70;99.90
32536;DHT22;18974;50.838;4.636;2022-12-07T07:13:03;4.70;99.90
32536;DHT22;18974;50.838;4.636;2022-12-07T07:15:29;4.80;99.90
32536;DHT22;18974;50.838;4.636;2022-12-07T07:17:55;4.70;99.90
32536;DHT22;18974;50.838;4.636;2022-12-07T07:20:20;4.90;99.90
32536;DHT22;18974;50.838;4.636;2022-12-07T07:22:47;4.90;99.90
32536;DHT22;18974;50.838;4.636;2022-12-07T07:25:13;4.90;99.90
32536;DHT22;18974;50.838;4.636;2022-12-07T07:27:39;4.90;99.90
32536;DHT22;18974;50.838;4.636;2022-12-07T07:30:06;5.00;99.90
32536;DHT22;18974;50.838;4.636;2022-12-07T07:32:32;5.00;99.90
32536;DHT22;18974;50.838;4.636;2022-12-07T07:34:57;5.20;99.90
32536;DHT22;18974;50.838;4.636;2022-12-07T07:37:23;5.30;99.90
32536;DHT22;18974;50.838;4.636;2022-12-07T07:39:49;5.30;99.90
32536;DHT22;18974;50.838;4.636;2022-12-07T07:42:15;5.20;99.90
32536;DHT22;18974;50.838;4.636;2022-12-07T07:44:40;5.30;99.90
32536;DHT22;18974;50.838;4.636;2022-12-07T07:47:06;5.50;99.90
32536;DHT22;18974;50.838;4.636;2022-12-07T07:49:32;5.50;99.90
32536;DHT22;18974;50.838;4.636;2022-12-07T07:51:57;5.60;99.90
32536;DHT22;18974;50.838;4.636;2022-12-07T07:54:23;5.50;99.90
32536;DHT22;18974;50.838;4.636;2022-12-07T07:56:49;5.40;99.90
32536;DHT22;18974;50.838;4.636;2022-12-07T07:59:15;5.40;99.90
32536;DHT22;18974;50.838;4.636;2022-12-07T08:01:40;5.40;99.90
32536;DHT22;18974;50.838;4.636;2022-12-07T08:04:06;5.40;99.90
32536;DHT22;18974;50.838;4.636;2022-12-07T08:06:32;5.40;99.90
32536;DHT22;18974;50.838;4.636;2022-12-07T08:08:58;5.40;99.90
32536;DHT22;18974;50.838;4.636;2022-12-07T08:11:24;5.20;99.90
32536;DHT22;18974;50.838;4.636;2022-12-07T08:13:50;5.00;99.90
32536;DHT22;18974;50.838;4.636;2022-12-07T08:16:15;4.90;99.90
32536;DHT22;18974;50.838;4.636;2022-12-07T08:18:42;4.70;99.90
32536;DHT22;18974;50.838;4.636;2022-12-07T08:21:11;4.70;99.90
32536;DHT22;18974;50.838;4.636;2022-12-07T08:23:37;4.70;99.90
32536;DHT22;18974;50.838;4.636;2022-12-07T08:26:05;4.70;99.90
32536;DHT22;18974;50.838;4.636;2022-12-07T08:28:32;4.60;99.90
32536;DHT22;18974;50.838;4.636;2022-12-07T08:31:01;4.50;99.90
32536;DHT22;18974;50.838;4.636;2022-12-07T08:33:28;4.40;99.90
32536;DHT22;18974;50.838;4.636;2022-12-07T08:35:54;4.40;99.90
32536;DHT22;18974;50.838;4.636;2022-12-07T08:38:19;4.50;99.90
32536;DHT22;18974;50.838;4.636;2022-12-07T08:40:53;4.60;99.90
32536;DHT22;18974;50.838;4.636;2022-12-07T08:43:18;4.50;99.90
32536;DHT22;18974;50.838;4.636;2022-12-07T08:45:44;4.50;99.90
32536;DHT22;18974;50.838;4.636;2022-12-07T08:48:12;4.50;99.90
32536;DHT22;18974;50.838;4.636;2022-12-07T08:50:39;4.60;99.90
32536;DHT22;18974;50.838;4.636;2022-12-07T08:53:05;4.70;99.90
32536;DHT22;18974;50.838;4.636;2022-12-07T08:55:32;4.70;99.90
32536;DHT22;18974;50.838;4.636;2022-12-07T08:57:59;4.80;99.90
32536;DHT22;18974;50.838;4.636;2022-12-07T09:00:26;4.90;99.90
32536;DHT22;18974;50.838;4.636;2022-12-07T09:02:52;5.10;99.90
32536;DHT22;18974;50.838;4.636;2022-12-07T09:05:18;5.40;99.90
32536;DHT22;18974;50.838;4.636;2022-12-07T09:07:47;5.60;99.90
32536;DHT22;18974;50.838;4.636;2022-12-07T09:10:15;5.70;99.90
32536;DHT22;18974;50.838;4.636;2022-12-07T09:12:41;5.80;99.90
32536;DHT22;18974;50.838;4.636;2022-12-07T09:15:07;6.00;99.90
32536;DHT22;18974;50.838;4.636;2022-12-07T09:17:33;6.00;99.90
32536;DHT22;18974;50.838;4.636;2022-12-07T09:19:59;6.20;99.90
32536;DHT22;18974;50.838;4.636;2022-12-07T09:22:29;6.20;99.90
32536;DHT22;18974;50.838;4.636;2022-12-07T09:24:57;6.30;99.90
32536;DHT22;18974;50.838;4.636;2022-12-07T09:27:22;6.40;99.90
32536;DHT22;18974;50.838;4.636;2022-12-07T09:29:48;6.50;99.90
32536;DHT22;18974;50.838;4.636;2022-12-07T09:32:13;6.50;99.90
32536;DHT22;18974;50.838;4.636;2022-12-07T09:34:39;6.60;99.90
32536;DHT22;18974;50.838;4.636;2022-12-07T09:37:05;6.70;99.90
32536;DHT22;18974;50.838;4.636;2022-12-07T09:39:32;6.80;99.90
32536;DHT22;18974;50.838;4.636;2022-12-07T09:41:59;6.90;99.90
32536;DHT22;18974;50.838;4.636;2022-12-07T09:44:28;6.90;99.90
32536;DHT22;18974;50.838;4.636;2022-12-07T09:46:54;7.10;99.90
32536;DHT22;18974;50.838;4.636;2022-12-07T09:49:22;7.10;99.90
32536;DHT22;18974;50.838;4.636;2022-12-07T09:52:03;7.20;99.90
32536;DHT22;18974;50.838;4.636;2022-12-07T09:54:45;7.30;99.90
32536;DHT22;18974;50.838;4.636;2022-12-07T09:57:11;7.40;99.90
32536;DHT22;18974;50.838;4.636;2022-12-07T09:59:41;7.60;99.90
32536;DHT22;18974;50.838;4.636;2022-12-07T10:02:33;7.60;99.90
32536;DHT22;18974;50.838;4.636;2022-12-07T10:05:00;7.70;99.90
32536;DHT22;18974;50.838;4.636;2022-12-07T10:07:25;7.80;99.90
32536;DHT22;18974;50.838;4.636;2022-12-07T10:09:51;7.70;99.90
32536;DHT22;18974;50.838;4.636;2022-12-07T10:12:17;7.70;99.90
32536;DHT22;18974;50.838;4.636;2022-12-07T10:15:12;7.60;99.90
32536;DHT22;18974;50.838;4.636;2022-12-07T10:17:41;7.60;99.90
32536;DHT22;18974;50.838;4.636;2022-12-07T10:20:25;7.60;99.90
32536;DHT22;18974;50.838;4.636;2022-12-07T10:23:03;7.60;99.90
32536;DHT22;18974;50.838;4.636;2022-12-07T10:25:34;7.50;99.90
32536;DHT22;18974;50.838;4.636;2022-12-07T10:28:16;7.50;99.90
32536;DHT22;18974;50.838;4.636;2022-12-07T10:31:00;7.50;99.90
32536;DHT22;18974;50.838;4.636;2022-12-07T10:33:33;7.60;99.90
32536;DHT22;18974;50.838;4.636;2022-12-07T10:36:01;7.60;99.90
32536;DHT22;18974;50.838;4.636;2022-12-07T10:38:45;7.60;99.90
32536;DHT22;18974;50.838;4.636;2022-12-07T10:41:11;7.60;99.90
32536;DHT22;18974;50.838;4.636;2022-12-07T10:43:36;7.70;99.90
32536;DHT22;18974;50.838;4.636;2022-12-07T10:49:23;7.80;99.90
32536;DHT22;18974;50.838;4.636;2022-12-07T11:00:19;7.90;99.90
32536;DHT22;18974;50.838;4.636;2022-12-07T11:11:05;8.70;99.90
32536;DHT22;18974;50.838;4.636;2022-12-07T11:19:20;8.60;99.90
32536;DHT22;18974;50.838;4.636;2022-12-07T11:21:58;8.60;99.90
32536;DHT22;18974;50.838;4.636;2022-12-07T11:24:29;8.60;99.90
32536;DHT22;18974;50.838;4.636;2022-12-07T11:27:22;8.50;99.90
32536;DHT22;18974;50.838;4.636;2022-12-07T11:32:57;8.60;99.90
32536;DHT22;18974;50.838;4.636;2022-12-07T11:38:22;8.90;99.90
32536;DHT22;18974;50.838;4.636;2022-12-07T11:40:50;9.10;99.90
32536;DHT22;18974;50.838;4.636;2022-12-07T11:43:28;9.10;99.90
32536;DHT22;18974;50.838;4.636;2022-12-07T11:46:08;9.30;99.90
32536;DHT22;18974;50.838;4.636;2022-12-07T11:48:40;9.30;99.90
32536;DHT22;18974;50.838;4.636;2022-12-07T11:51:09;9.40;99.90
32536;DHT22;18974;50.838;4.636;2022-12-07T11:54:03;9.10;99.90
32536;DHT22;18974;50.838;4.636;2022-12-07T11:56:34;9.00;99.90
32536;DHT22;18974;50.838;4.636;2022-12-07T11:59:11;8.90;99.90
32536;DHT22;18974;50.838;4.636;2022-12-07T12:06:30;8.60;99.90
32536;DHT22;18974;50.838;4.636;2022-12-07T12:14:53;8.70;99.90
32536;DHT22;18974;50.838;4.636;2022-12-07T12:21:08;8.90;99.90
32536;DHT22;18974;50.838;4.636;2022-12-07T12:23:43;9.10;99.90
32536;DHT22;18974;50.838;4.636;2022-12-07T12:26:19;9.00;99.90
32536;DHT22;18974;50.838;4.636;2022-12-07T12:28:55;9.20;99.90
32536;DHT22;18974;50.838;4.636;2022-12-07T12:54:31;9.30;99.90
32536;DHT22;18974;50.838;4.636;2022-12-07T12:57:24;9.10;99.90
32536;DHT22;18974;50.838;4.636;2022-12-07T13:02:30;8.80;99.90
32536;DHT22;18974;50.838;4.636;2022-12-07T13:05:16;8.80;99.90
32536;DHT22;18974;50.838;4.636;2022-12-07T13:15:33;9.10;99.90
32536;DHT22;18974;50.838;4.636;2022-12-07T13:18:00;9.30;99.90
32536;DHT22;18974;50.838;4.636;2022-12-07T13:20:46;9.30;99.90
32536;DHT22;18974;50.838;4.636;2022-12-07T13:23:14;9.20;99.90
32536;DHT22;18974;50.838;4.636;2022-12-07T13:25:54;9.10;99.90
32536;DHT22;18974;50.838;4.636;2022-12-07T13:28:21;9.00;99.90
32536;DHT22;18974;50.838;4.636;2022-12-07T13:33:17;8.70;99.90
32536;DHT22;18974;50.838;4.636;2022-12-07T13:35:44;8.70;99.90
32536;DHT22;18974;50.838;4.636;2022-12-07T13:38:31;8.70;99.90
32536;DHT22;18974;50.838;4.636;2022-12-07T13:43:27;8.60;99.90
32536;DHT22;18974;50.838;4.636;2022-12-07T13:45:57;8.60;99.90
32536;DHT22;18974;50.838;4.636;2022-12-07T13:48:45;8.50;99.90
32536;DHT22;18974;50.838;4.636;2022-12-07T13:51:21;8.60;99.90
32536;DHT22;18974;50.838;4.636;2022-12-07T13:53:53;8.70;99.90
32536;DHT22;18974;50.838;4.636;2022-12-07T13:56:21;8.70;99.90
32536;DHT22;18974;50.838;4.636;2022-12-07T13:58:47;8.90;99.90
32536;DHT22;18974;50.838;4.636;2022-12-07T14:01:13;8.90;99.90
32536;DHT22;18974;50.838;4.636;2022-12-07T14:03:39;9.10;99.90
32536;DHT22;18974;50.838;4.636;2022-12-07T14:06:13;9.10;99.90
32536;DHT22;18974;50.838;4.636;2022-12-07T14:08:40;9.10;99.90
32536;DHT22;18974;50.838;4.636;2022-12-07T14:11:09;9.20;99.90
32536;DHT22;18974;50.838;4.636;2022-12-07T14:13:38;9.10;99.90
32536;DHT22;18974;50.838;4.636;2022-12-07T14:16:23;9.10;99.90
32536;DHT22;18974;50.838;4.636;2022-12-07T14:18:53;9.20;99.90
32536;DHT22;18974;50.838;4.636;2022-12-07T14:21:21;9.20;99.90
32536;DHT22;18974;50.838;4.636;2022-12-07T14:24:17;9.20;99.90
32536;DHT22;18974;50.838;4.636;2022-12-07T14:26:48;9.10;99.90
32536;DHT22;18974;50.838;4.636;2022-12-07T14:31:53;9.00;99.90
32536;DHT22;18974;50.838;4.636;2022-12-07T14:34:23;9.00;99.90
32536;DHT22;18974;50.838;4.636;2022-12-07T14:36:49;9.00;99.90
32536;DHT22;18974;50.838;4.636;2022-12-07T14:39:15;9.00;99.90
32536;DHT22;18974;50.838;4.636;2022-12-07T14:41:41;8.80;99.90
32536;DHT22;18974;50.838;4.636;2022-12-07T14:44:17;8.50;99.90
32536;DHT22;18974;50.838;4.636;2022-12-07T14:46:42;8.30;99.90
32536;DHT22;18974;50.838;4.636;2022-12-07T14:49:08;8.20;99.90
32536;DHT22;18974;50.838;4.636;2022-12-07T14:51:37;8.10;99.90
32536;DHT22;18974;50.838;4.636;2022-12-07T14:54:05;8.00;99.90
32536;DHT22;18974;50.838;4.636;2022-12-07T14:56:31;7.90;99.90
32536;DHT22;18974;50.838;4.636;2022-12-07T14:58:56;7.90;99.90
32536;DHT22;18974;50.838;4.636;2022-12-07T15:01:23;7.90;99.90
32536;DHT22;18974;50.838;4.636;2022-12-07T15:03:48;7.90;99.90
32536;DHT22;18974;50.838;4.636;2022-12-07T15:06:16;7.60;99.90
32536;DHT22;18974;50.838;4.636;2022-12-07T15:08:42;7.50;99.90
32536;DHT22;18974;50.838;4.636;2022-12-07T15:11:13;7.50;99.90
32536;DHT22;18974;50.838;4.636;2022-12-07T15:13:39;7.50;99.90
32536;DHT22;18974;50.838;4.636;2022-12-07T15:16:24;7.50;99.90
32536;DHT22;18974;50.838;4.636;2022-12-07T15:18:49;7.50;99.90
32536;DHT22;18974;50.838;4.636;2022-12-07T15:21:15;7.40;99.90
32536;DHT22;18974;50.838;4.636;2022-12-07T15:23:41;7.30;99.90
32536;DHT22;18974;50.838;4.636;2022-12-07T15:26:09;7.30;99.90
32536;DHT22;18974;50.838;4.636;2022-12-07T15:28:35;7.20;99.90
32536;DHT22;18974;50.838;4.636;2022-12-07T15:31:04;7.20;99.90
32536;DHT22;18974;50.838;4.636;2022-12-07T15:33:35;7.10;99.90
32536;DHT22;18974;50.838;4.636;2022-12-07T15:36:01;7.00;99.90
32536;DHT22;18974;50.838;4.636;2022-12-07T15:38:27;6.90;99.90
32536;DHT22;18974;50.838;4.636;2022-12-07T15:40:54;6.90;99.90
32536;DHT22;18974;50.838;4.636;2022-12-07T15:43:19;7.00;99.90
32536;DHT22;18974;50.838;4.636;2022-12-07T15:46:03;7.00;99.90
32536;DHT22;18974;50.838;4.636;2022-12-07T15:48:29;6.90;99.90
32536;DHT22;18974;50.838;4.636;2022-12-07T15:51:06;6.90;99.90
32536;DHT22;18974;50.838;4.636;2022-12-07T15:53:32;7.00;99.90
32536;DHT22;18974;50.838;4.636;2022-12-07T15:55:58;7.00;99.90
32536;DHT22;18974;50.838;4.636;2022-12-07T15:58:24;7.00;99.90
32536;DHT22;18974;50.838;4.636;2022-12-07T16:00:50;7.00;99.90
32536;DHT22;18974;50.838;4.636;2022-12-07T16:03:16;7.00;99.90
32536;DHT22;18974;50.838;4.636;2022-12-07T16:05:41;7.00;99.90
32536;DHT22;18974;50.838;4.636;2022-12-07T16:08:07;7.00;99.90
32536;DHT22;18974;50.838;4.636;2022-12-07T16:10:34;7.00;99.90
32536;DHT22;18974;50.838;4.636;2022-12-07T16:13:00;6.90;99.90
32536;DHT22;18974;50.838;4.636;2022-12-07T16:15:26;6.90;99.90
32536;DHT22;18974;50.838;4.636;2022-12-07T16:17:52;6.90;99.90
32536;DHT22;18974;50.838;4.636;2022-12-07T16:20:19;6.90;99.90
32536;DHT22;18974;50.838;4.636;2022-12-07T16:22:45;7.00;99.90
32536;DHT22;18974;50.838;4.636;2022-12-07T16:25:10;6.90;99.90
32536;DHT22;18974;50.838;4.636;2022-12-07T16:27:36;7.10;99.90
32536;DHT22;18974;50.838;4.636;2022-12-07T16:30:02;7.00;99.90
32536;DHT22;18974;50.838;4.636;2022-12-07T16:32:28;7.00;99.90
32536;DHT22;18974;50.838;4.636;2022-12-07T16:34:54;7.10;99.90
32536;DHT22;18974;50.838;4.636;2022-12-07T16:37:20;7.10;99.90
32536;DHT22;18974;50.838;4.636;2022-12-07T16:39:45;7.10;99.90
32536;DHT22;18974;50.838;4.636;2022-12-07T16:42:11;7.00;99.90
32536;DHT22;18974;50.838;4.636;2022-12-07T16:44:37;7.00;99.90
32536;DHT22;18974;50.838;4.636;2022-12-07T16:47:03;7.10;99.90
32536;DHT22;18974;50.838;4.636;2022-12-07T16:49:28;7.00;99.90
32536;DHT22;18974;50.838;4.636;2022-12-07T16:51:54;7.00;99.90
32536;DHT22;18974;50.838;4.636;2022-12-07T16:54:20;7.10;99.90
32536;DHT22;18974;50.838;4.636;2022-12-07T16:56:46;7.10;99.90
32536;DHT22;18974;50.838;4.636;2022-12-07T16:59:12;7.10;99.90
32536;DHT22;18974;50.838;4.636;2022-12-07T17:01:37;7.10;99.90
32536;DHT22;18974;50.838;4.636;2022-12-07T17:04:04;7.10;99.90
32536;DHT22;18974;50.838;4.636;2022-12-07T17:06:29;7.10;99.90
32536;DHT22;18974;50.838;4.636;2022-12-07T17:08:56;7.10;99.90
32536;DHT22;18974;50.838;4.636;2022-12-07T17:11:26;7.10;99.90
32536;DHT22;18974;50.838;4.636;2022-12-07T17:13:52;7.00;99.90
32536;DHT22;18974;50.838;4.636;2022-12-07T17:16:37;7.00;99.90
32536;DHT22;18974;50.838;4.636;2022-12-07T17:19:06;7.00;99.90
32536;DHT22;18974;50.838;4.636;2022-12-07T17:21:33;6.90;99.90
32536;DHT22;18974;50.838;4.636;2022-12-07T17:23:59;7.00;99.90
32536;DHT22;18974;50.838;4.636;2022-12-07T17:26:26;7.00;99.90
32536;DHT22;18974;50.838;4.636;2022-12-07T17:28:52;6.90;99.90
32536;DHT22;18974;50.838;4.636;2022-12-07T17:31:19;7.00;99.90
32536;DHT22;18974;50.838;4.636;2022-12-07T17:33:46;7.00;99.90
32536;DHT22;18974;50.838;4.636;2022-12-07T17:36:23;7.00;99.90
32536;DHT22;18974;50.838;4.636;2022-12-07T17:38:50;7.00;99.90
32536;DHT22;18974;50.838;4.636;2022-12-07T17:41:20;6.90;99.90
32536;DHT22;18974;50.838;4.636;2022-12-07T17:44:08;7.00;99.90
32536;DHT22;18974;50.838;4.636;2022-12-07T17:46:35;7.00;99.90
32536;DHT22;18974;50.838;4.636;2022-12-07T17:49:01;7.00;99.90
32536;DHT22;18974;50.838;4.636;2022-12-07T17:51:27;6.90;99.90
32536;DHT22;18974;50.838;4.636;2022-12-07T17:54:12;6.80;99.90
32536;DHT22;18974;50.838;4.636;2022-12-07T17:56:38;6.80;99.90
32536;DHT22;18974;50.838;4.636;2022-12-07T17:59:04;6.70;99.90